sensor_id;sensor_type;location;lat;lon;timestamp;pressure;altitude;pressure_sealevel;temperature;humidity
72855;BME280;60991;51.278;22.550;2023-08-06T00:00:52;97921.00;;;22.45;73.08
72855;BME280;60991;51.278;22.550;2023-08-06T00:02:22;97915.09;;;22.40;73.28
72855;BME280;60991;51.278;22.550;2023-08-06T00:03:52;97932.44;;;22.39;73.52
72855;BME280;60991;51.278;22.550;2023-08-06T00:05:22;97915.00;;;22.36;73.56
72855;BME280;60991;51.278;22.550;2023-08-06T00:06:52;97914.13;;;22.32;73.55
72855;BME280;60991;51.278;22.550;2023-08-06T00:08:23;97911.41;;;22.32;73.55
72855;BME280;60991;51.278;22.550;2023-08-06T00:09:53;97914.38;;;22.27;73.34
72855;BME280;60991;51.278;22.550;2023-08-06T00:11:23;97915.94;;;22.28;73.63
72855;BME280;60991;51.278;22.550;2023-08-06T00:12:53;97905.13;;;22.28;73.39
72855;BME280;60991;51.278;22.550;2023-08-06T00:14:23;97918.59;;;22.25;73.71
72855;BME280;60991;51.278;22.550;2023-08-06T00:15:54;97913.19;;;22.25;73.52
72855;BME280;60991;51.278;22.550;2023-08-06T00:17:24;97908.47;;;22.22;73.55
72855;BME280;60991;51.278;22.550;2023-08-06T00:18:54;97898.44;;;22.22;73.57
72855;BME280;60991;51.278;22.550;2023-08-06T00:20:24;97899.84;;;22.16;73.71
72855;BME280;60991;51.278;22.550;2023-08-06T00:21:54;97900.97;;;22.15;73.79
72855;BME280;60991;51.278;22.550;2023-08-06T00:23:25;97890.50;;;22.14;73.61
72855;BME280;60991;51.278;22.550;2023-08-06T00:24:55;97885.88;;;22.14;73.72
72855;BME280;60991;51.278;22.550;2023-08-06T00:26:25;97882.03;;;22.15;73.78
72855;BME280;60991;51.278;22.550;2023-08-06T00:27:55;97882.13;;;22.19;73.66
72855;BME280;60991;51.278;22.550;2023-08-06T00:29:25;97887.19;;;22.20;73.38
72855;BME280;60991;51.278;22.550;2023-08-06T00:30:56;97880.66;;;22.21;73.27
72855;BME280;60991;51.278;22.550;2023-08-06T00:32:26;97872.53;;;22.21;73.40
72855;BME280;60991;51.278;22.550;2023-08-06T00:33:56;97876.38;;;22.20;73.31
72855;BME280;60991;51.278;22.550;2023-08-06T00:35:27;97873.59;;;22.17;73.57
72855;BME280;60991;51.278;22.550;2023-08-06T00:36:57;97873.94;;;22.15;73.79
72855;BME280;60991;51.278;22.550;2023-08-06T00:38:27;97876.97;;;22.14;73.50
72855;BME280;60991;51.278;22.550;2023-08-06T00:39:57;97871.94;;;22.12;73.52
72855;BME280;60991;51.278;22.550;2023-08-06T00:41:28;97874.97;;;22.10;73.44
72855;BME280;60991;51.278;22.550;2023-08-06T00:42:58;97872.28;;;22.10;73.60
72855;BME280;60991;51.278;22.550;2023-08-06T00:44:28;97866.03;;;22.06;73.46
72855;BME280;60991;51.278;22.550;2023-08-06T00:45:58;97862.53;;;22.06;73.65
72855;BME280;60991;51.278;22.550;2023-08-06T00:47:29;97862.09;;;22.04;73.53
72855;BME280;60991;51.278;22.550;2023-08-06T00:48:59;97857.03;;;22.02;73.46
72855;BME280;60991;51.278;22.550;2023-08-06T00:50:30;97856.25;;;22.02;73.61
72855;BME280;60991;51.278;22.550;2023-08-06T00:52:01;97861.31;;;22.03;73.31
72855;BME280;60991;51.278;22.550;2023-08-06T00:53:32;97867.84;;;22.02;73.26
72855;BME280;60991;51.278;22.550;2023-08-06T00:55:03;97860.19;;;22.04;73.25
72855;BME280;60991;51.278;22.550;2023-08-06T00:56:34;97871.00;;;22.04;73.05
72855;BME280;60991;51.278;22.550;2023-08-06T00:58:05;97864.81;;;22.04;72.99
72855;BME280;60991;51.278;22.550;2023-08-06T00:59:35;97860.97;;;22.05;72.99
72855;BME280;60991;51.278;22.550;2023-08-06T01:01:05;97858.63;;;22.03;72.93
72855;BME280;60991;51.278;22.550;2023-08-06T01:02:36;97859.41;;;22.04;73.29
72855;BME280;60991;51.278;22.550;2023-08-06T01:04:06;97861.22;;;22.00;73.28
72855;BME280;60991;51.278;22.550;2023-08-06T01:05:37;97860.75;;;21.98;72.98
72855;BME280;60991;51.278;22.550;2023-08-06T01:07:19;97864.16;;;21.95;73.31
72855;BME280;60991;51.278;22.550;2023-08-06T01:08:58;97853.78;;;21.97;73.16
72855;BME280;60991;51.278;22.550;2023-08-06T01:10:51;97854.13;;;21.95;72.90
72855;BME280;60991;51.278;22.550;2023-08-06T01:12:35;97851.19;;;22.00;72.95
72855;BME280;60991;51.278;22.550;2023-08-06T01:14:15;97853.44;;;21.98;72.98
72855;BME280;60991;51.278;22.550;2023-08-06T01:15:47;97849.59;;;21.99;72.83
72855;BME280;60991;51.278;22.550;2023-08-06T01:17:20;97850.28;;;21.96;72.84
72855;BME280;60991;51.278;22.550;2023-08-06T01:18:50;97833.63;;;21.94;72.79
72855;BME280;60991;51.278;22.550;2023-08-06T01:20:20;97841.75;;;21.94;72.86
72855;BME280;60991;51.278;22.550;2023-08-06T01:21:50;97838.59;;;21.92;72.93
72855;BME280;60991;51.278;22.550;2023-08-06T01:23:21;97839.38;;;21.93;72.81
72855;BME280;60991;51.278;22.550;2023-08-06T01:24:51;97831.28;;;21.93;72.95
72855;BME280;60991;51.278;22.550;2023-08-06T01:26:27;97833.94;;;21.89;72.91
72855;BME280;60991;51.278;22.550;2023-08-06T01:28:07;97835.47;;;21.90;73.13
72855;BME280;60991;51.278;22.550;2023-08-06T01:29:59;97830.00;;;21.87;73.26
72855;BME280;60991;51.278;22.550;2023-08-06T01:31:35;97826.16;;;21.88;73.03
72855;BME280;60991;51.278;22.550;2023-08-06T01:33:10;97823.81;;;21.86;73.05
72855;BME280;60991;51.278;22.550;2023-08-06T01:34:44;97821.47;;;21.85;73.25
72855;BME280;60991;51.278;22.550;2023-08-06T01:36:16;97819.34;;;21.78;73.38
72855;BME280;60991;51.278;22.550;2023-08-06T01:37:48;97815.09;;;21.77;73.51
72855;BME280;60991;51.278;22.550;2023-08-06T01:39:18;97820.94;;;21.79;73.31
72855;BME280;60991;51.278;22.550;2023-08-06T01:40:48;97816.66;;;21.78;73.38
72855;BME280;60991;51.278;22.550;2023-08-06T01:42:18;97817.44;;;21.78;73.08
72855;BME280;60991;51.278;22.550;2023-08-06T01:43:49;97812.38;;;21.77;73.22
72855;BME280;60991;51.278;22.550;2023-08-06T01:45:19;97817.44;;;21.78;72.99
72855;BME280;60991;51.278;22.550;2023-08-06T01:46:49;97811.25;;;21.78;72.81
72855;BME280;60991;51.278;22.550;2023-08-06T01:48:19;97807.75;;;21.77;73.29
72855;BME280;60991;51.278;22.550;2023-08-06T01:49:49;97801.16;;;21.75;73.36
72855;BME280;60991;51.278;22.550;2023-08-06T01:51:20;97798.78;;;21.73;73.37
72855;BME280;60991;51.278;22.550;2023-08-06T01:52:50;97794.16;;;21.74;73.27
72855;BME280;60991;51.278;22.550;2023-08-06T01:54:20;97789.13;;;21.72;73.00
72855;BME280;60991;51.278;22.550;2023-08-06T01:55:50;97794.50;;;21.72;73.31
72855;BME280;60991;51.278;22.550;2023-08-06T01:57:21;97787.97;;;21.73;73.40
72855;BME280;60991;51.278;22.550;2023-08-06T01:58:51;97785.63;;;21.72;73.30
72855;BME280;60991;51.278;22.550;2023-08-06T02:00:21;97788.34;;;21.72;73.35
72855;BME280;60991;51.278;22.550;2023-08-06T02:01:51;97790.69;;;21.73;73.29
72855;BME280;60991;51.278;22.550;2023-08-06T02:03:22;97788.72;;;21.70;73.27
72855;BME280;60991;51.278;22.550;2023-08-06T02:04:52;97778.25;;;21.69;73.32
72855;BME280;60991;51.278;22.550;2023-08-06T02:06:23;97770.84;;;21.66;73.48
72855;BME280;60991;51.278;22.550;2023-08-06T02:07:53;97771.63;;;21.66;73.58
72855;BME280;60991;51.278;22.550;2023-08-06T02:09:23;97771.97;;;21.65;73.55
72855;BME280;60991;51.278;22.550;2023-08-06T02:10:54;97775.72;;;21.60;73.58
72855;BME280;60991;51.278;22.550;2023-08-06T02:12:24;97768.75;;;21.59;73.59
72855;BME280;60991;51.278;22.550;2023-08-06T02:13:54;97766.47;;;21.61;73.71
72855;BME280;60991;51.278;22.550;2023-08-06T02:15:24;97766.91;;;21.63;73.79
72855;BME280;60991;51.278;22.550;2023-08-06T02:16:54;97758.47;;;21.65;73.29
72855;BME280;60991;51.278;22.550;2023-08-06T02:18:25;97757.69;;;21.64;73.29
72855;BME280;60991;51.278;22.550;2023-08-06T02:19:55;97759.25;;;21.65;73.60
72855;BME280;60991;51.278;22.550;2023-08-06T02:21:25;97751.84;;;21.62;73.48
72855;BME280;60991;51.278;22.550;2023-08-06T02:22:55;97750.28;;;21.61;73.68
72855;BME280;60991;51.278;22.550;2023-08-06T02:24:25;97748.00;;;21.63;73.75
72855;BME280;60991;51.278;22.550;2023-08-06T02:26:04;97752.63;;;21.63;73.63
72855;BME280;60991;51.278;22.550;2023-08-06T02:27:34;97744.97;;;21.65;73.30
72855;BME280;60991;51.278;22.550;2023-08-06T02:29:04;97745.75;;;21.65;73.40
72855;BME280;60991;51.278;22.550;2023-08-06T02:30:35;97741.91;;;21.66;73.55
72855;BME280;60991;51.278;22.550;2023-08-06T02:32:05;97737.66;;;21.65;73.71
72855;BME280;60991;51.278;22.550;2023-08-06T02:33:36;97736.06;;;21.64;73.29
72855;BME280;60991;51.278;22.550;2023-08-06T02:35:06;97736.00;;;21.61;73.74
72855;BME280;60991;51.278;22.550;2023-08-06T02:36:36;97734.06;;;21.61;73.63
72855;BME280;60991;51.278;22.550;2023-08-06T02:38:06;97724.94;;;21.66;73.70
72855;BME280;60991;51.278;22.550;2023-08-06T02:39:37;97736.16;;;21.68;72.94
72855;BME280;60991;51.278;22.550;2023-08-06T02:41:07;97736.16;;;21.68;73.32
72855;BME280;60991;51.278;22.550;2023-08-06T02:42:37;97739.66;;;21.68;73.54
72855;BME280;60991;51.278;22.550;2023-08-06T02:44:07;97734.59;;;21.67;73.59
72855;BME280;60991;51.278;22.550;2023-08-06T02:45:37;97731.56;;;21.68;73.52
72855;BME280;60991;51.278;22.550;2023-08-06T02:47:08;97731.19;;;21.70;73.21
72855;BME280;60991;51.278;22.550;2023-08-06T02:48:38;97732.69;;;21.67;73.54
72855;BME280;60991;51.278;22.550;2023-08-06T02:50:08;97739.56;;;21.65;73.29
72855;BME280;60991;51.278;22.550;2023-08-06T02:51:39;97732.25;;;21.65;73.62
72855;BME280;60991;51.278;22.550;2023-08-06T02:53:09;97735.72;;;21.66;73.49
72855;BME280;60991;51.278;22.550;2023-08-06T02:54:39;97722.91;;;21.63;73.26
72855;BME280;60991;51.278;22.550;2023-08-06T02:56:09;97721.34;;;21.62;73.40
72855;BME280;60991;51.278;22.550;2023-08-06T02:57:39;97722.13;;;21.62;73.38
72855;BME280;60991;51.278;22.550;2023-08-06T02:59:10;97724.06;;;21.62;73.25
72855;BME280;60991;51.278;22.550;2023-08-06T03:00:40;97722.13;;;21.62;73.36
72855;BME280;60991;51.278;22.550;2023-08-06T03:02:10;97724.41;;;21.60;73.22
72855;BME280;60991;51.278;22.550;2023-08-06T03:03:40;97728.22;;;21.59;73.51
72855;BME280;60991;51.278;22.550;2023-08-06T03:05:11;97719.34;;;21.59;73.47
72855;BME280;60991;51.278;22.550;2023-08-06T03:06:41;97726.66;;;21.58;73.14
72855;BME280;60991;51.278;22.550;2023-08-06T03:08:11;97723.19;;;21.58;73.28
72855;BME280;60991;51.278;22.550;2023-08-06T03:09:41;97717.44;;;21.59;72.85
72855;BME280;60991;51.278;22.550;2023-08-06T03:11:11;97723.19;;;21.58;72.92
72855;BME280;60991;51.278;22.550;2023-08-06T03:12:42;97715.44;;;21.56;72.96
72855;BME280;60991;51.278;22.550;2023-08-06T03:14:12;97720.47;;;21.58;72.94
72855;BME280;60991;51.278;22.550;2023-08-06T03:15:43;97723.09;;;21.54;73.11
72855;BME280;60991;51.278;22.550;2023-08-06T03:17:13;97714.59;;;21.52;72.80
72855;BME280;60991;51.278;22.550;2023-08-06T03:18:43;97717.63;;;21.51;72.99
72855;BME280;60991;51.278;22.550;2023-08-06T03:20:13;97716.50;;;21.52;72.92
72855;BME280;60991;51.278;22.550;2023-08-06T03:21:43;97713.78;;;21.52;73.04
72855;BME280;60991;51.278;22.550;2023-08-06T03:23:14;97710.91;;;21.45;73.04
72855;BME280;60991;51.278;22.550;2023-08-06T03:24:44;97707.44;;;21.44;73.32
72855;BME280;60991;51.278;22.550;2023-08-06T03:26:14;97707.09;;;21.46;73.26
72855;BME280;60991;51.278;22.550;2023-08-06T03:27:44;97706.31;;;21.45;73.06
72855;BME280;60991;51.278;22.550;2023-08-06T03:29:14;97704.03;;;21.47;73.00
72855;BME280;60991;51.278;22.550;2023-08-06T03:30:45;97704.47;;;21.49;72.71
72855;BME280;60991;51.278;22.550;2023-08-06T03:32:15;97706.84;;;21.51;72.73
72855;BME280;60991;51.278;22.550;2023-08-06T03:33:45;97704.91;;;21.51;72.80
72855;BME280;60991;51.278;22.550;2023-08-06T03:35:15;97701.44;;;21.51;72.72
72855;BME280;60991;51.278;22.550;2023-08-06T03:36:46;97702.28;;;21.55;72.40
72855;BME280;60991;51.278;22.550;2023-08-06T03:38:16;97698.00;;;21.54;72.52
72855;BME280;60991;51.278;22.550;2023-08-06T03:39:46;97693.81;;;21.56;72.53
72855;BME280;60991;51.278;22.550;2023-08-06T03:41:16;97686.94;;;21.59;72.32
72855;BME280;60991;51.278;22.550;2023-08-06T03:42:46;97691.22;;;21.60;72.40
72855;BME280;60991;51.278;22.550;2023-08-06T03:44:17;97681.19;;;21.60;72.58
72855;BME280;60991;51.278;22.550;2023-08-06T03:45:47;97679.72;;;21.63;72.31
72855;BME280;60991;51.278;22.550;2023-08-06T03:47:17;97680.94;;;21.65;72.07
72855;BME280;60991;51.278;22.550;2023-08-06T03:48:47;97679.09;;;21.69;71.88
72855;BME280;60991;51.278;22.550;2023-08-06T03:50:17;97677.97;;;21.70;71.79
72855;BME280;60991;51.278;22.550;2023-08-06T03:51:48;97677.59;;;21.72;71.89
72855;BME280;60991;51.278;22.550;2023-08-06T03:53:18;97676.09;;;21.74;71.91
72855;BME280;60991;51.278;22.550;2023-08-06T03:54:48;97676.09;;;21.74;71.79
72855;BME280;60991;51.278;22.550;2023-08-06T03:56:18;97671.50;;;21.75;71.84
72855;BME280;60991;51.278;22.550;2023-08-06T03:57:49;97667.66;;;21.76;71.89
72855;BME280;60991;51.278;22.550;2023-08-06T03:59:19;97660.78;;;21.78;71.92
72855;BME280;60991;51.278;22.550;2023-08-06T04:00:57;97661.56;;;21.79;71.50
72855;BME280;60991;51.278;22.550;2023-08-06T04:02:28;97665.47;;;21.82;71.47
72855;BME280;60991;51.278;22.550;2023-08-06T04:03:58;97658.50;;;21.81;71.45
72855;BME280;60991;51.278;22.550;2023-08-06T04:05:31;97665.47;;;21.82;71.38
72855;BME280;60991;51.278;22.550;2023-08-06T04:07:01;97654.22;;;21.80;71.61
72855;BME280;60991;51.278;22.550;2023-08-06T04:08:32;97648.84;;;21.80;71.67
72855;BME280;60991;51.278;22.550;2023-08-06T04:10:04;97643.78;;;21.78;71.46
72855;BME280;60991;51.278;22.550;2023-08-06T04:11:34;97649.63;;;21.80;71.48
72855;BME280;60991;51.278;22.550;2023-08-06T04:13:04;97655.81;;;21.81;71.50
72855;BME280;60991;51.278;22.550;2023-08-06T04:14:34;97643.00;;;21.77;71.51
72855;BME280;60991;51.278;22.550;2023-08-06T04:16:05;97649.97;;;21.78;71.33
72855;BME280;60991;51.278;22.550;2023-08-06T04:17:35;97647.69;;;21.81;71.44
72855;BME280;60991;51.278;22.550;2023-08-06T04:19:05;97645.78;;;21.81;71.46
72855;BME280;60991;51.278;22.550;2023-08-06T04:20:42;97647.25;;;21.78;71.33
72855;BME280;60991;51.278;22.550;2023-08-06T04:22:13;97645.78;;;21.81;71.58
72855;BME280;60991;51.278;22.550;2023-08-06T04:23:43;97648.84;;;21.80;71.64
72855;BME280;60991;51.278;22.550;2023-08-06T04:25:13;97642.66;;;21.79;71.56
72855;BME280;60991;51.278;22.550;2023-08-06T04:26:43;97640.38;;;21.81;71.46
72855;BME280;60991;51.278;22.550;2023-08-06T04:28:14;97640.38;;;21.81;71.57
72855;BME280;60991;51.278;22.550;2023-08-06T04:29:44;97637.69;;;21.81;71.65
72855;BME280;60991;51.278;22.550;2023-08-06T04:31:15;97631.50;;;21.81;71.57
72855;BME280;60991;51.278;22.550;2023-08-06T04:32:45;97640.09;;;21.86;71.43
72855;BME280;60991;51.278;22.550;2023-08-06T04:34:15;97639.69;;;21.84;71.47
72855;BME280;60991;51.278;22.550;2023-08-06T04:35:45;97627.38;;;21.87;71.77
72855;BME280;60991;51.278;22.550;2023-08-06T04:37:15;97624.03;;;21.93;71.34
72855;BME280;60991;51.278;22.550;2023-08-06T04:38:46;97631.56;;;21.84;71.27
72855;BME280;60991;51.278;22.550;2023-08-06T04:40:16;97630.13;;;21.90;71.53
72855;BME280;60991;51.278;22.550;2023-08-06T04:41:46;97634.91;;;21.97;71.00
72855;BME280;60991;51.278;22.550;2023-08-06T04:43:16;97631.19;;;22.01;70.88
72855;BME280;60991;51.278;22.550;2023-08-06T04:44:47;97631.44;;;21.96;70.90
72855;BME280;60991;51.278;22.550;2023-08-06T04:46:17;97633.53;;;22.03;70.79
72855;BME280;60991;51.278;22.550;2023-08-06T04:47:47;97624.72;;;22.06;70.92
72855;BME280;60991;51.278;22.550;2023-08-06T04:49:20;97620.72;;;22.00;70.80
72855;BME280;60991;51.278;22.550;2023-08-06T04:50:50;97626.34;;;22.10;70.34
72855;BME280;60991;51.278;22.550;2023-08-06T04:52:20;97619.88;;;22.15;70.20
72855;BME280;60991;51.278;22.550;2023-08-06T04:53:51;97620.72;;;22.19;70.37
72855;BME280;60991;51.278;22.550;2023-08-06T04:55:21;97614.97;;;22.21;70.42
72855;BME280;60991;51.278;22.550;2023-08-06T04:56:51;97604.94;;;22.21;70.24
72855;BME280;60991;51.278;22.550;2023-08-06T04:58:21;97612.63;;;22.19;70.23
72855;BME280;60991;51.278;22.550;2023-08-06T04:59:51;97611.59;;;22.27;70.06
72855;BME280;60991;51.278;22.550;2023-08-06T05:01:21;97612.69;;;22.23;70.00
72855;BME280;60991;51.278;22.550;2023-08-06T05:02:52;97609.69;;;22.28;69.46
72855;BME280;60991;51.278;22.550;2023-08-06T05:04:22;97614.25;;;22.24;70.05
72855;BME280;60991;51.278;22.550;2023-08-06T05:05:52;97606.28;;;22.31;69.60
72855;BME280;60991;51.278;22.550;2023-08-06T05:07:22;97599.00;;;22.35;69.16
72855;BME280;60991;51.278;22.550;2023-08-06T05:08:53;97608.44;;;22.22;70.00
72855;BME280;60991;51.278;22.550;2023-08-06T05:10:26;97605.81;;;22.25;69.89
72855;BME280;60991;51.278;22.550;2023-08-06T05:11:56;97600.88;;;22.31;69.34
72855;BME280;60991;51.278;22.550;2023-08-06T05:13:27;97608.34;;;22.37;69.47
72855;BME280;60991;51.278;22.550;2023-08-06T05:14:57;97601.16;;;22.45;68.92
72855;BME280;60991;51.278;22.550;2023-08-06T05:16:28;97604.25;;;22.47;69.01
72855;BME280;60991;51.278;22.550;2023-08-06T05:17:58;97597.28;;;22.46;68.76
72855;BME280;60991;51.278;22.550;2023-08-06T05:19:28;97594.28;;;22.51;68.58
72855;BME280;60991;51.278;22.550;2023-08-06T05:20:58;97595.78;;;22.49;69.08
72855;BME280;60991;51.278;22.550;2023-08-06T05:22:29;97596.22;;;22.51;69.08
72855;BME280;60991;51.278;22.550;2023-08-06T05:23:59;97598.28;;;22.57;68.54
72855;BME280;60991;51.278;22.550;2023-08-06T05:25:29;97596.72;;;22.56;68.64
72855;BME280;60991;51.278;22.550;2023-08-06T05:27:00;97595.84;;;22.52;68.99
72855;BME280;60991;51.278;22.550;2023-08-06T05:28:30;97589.81;;;22.59;68.72
72855;BME280;60991;51.278;22.550;2023-08-06T05:30:00;97589.88;;;22.62;68.42
72855;BME280;60991;51.278;22.550;2023-08-06T05:31:30;97590.31;;;22.68;68.19
72855;BME280;60991;51.278;22.550;2023-08-06T05:33:00;97587.34;;;22.73;68.30
72855;BME280;60991;51.278;22.550;2023-08-06T05:34:31;97594.72;;;22.76;67.96
72855;BME280;60991;51.278;22.550;2023-08-06T05:36:01;97599.47;;;22.79;68.16
72855;BME280;60991;51.278;22.550;2023-08-06T05:37:31;97594.03;;;22.79;67.50
72855;BME280;60991;51.278;22.550;2023-08-06T05:39:01;97590.91;;;22.77;67.61
72855;BME280;60991;51.278;22.550;2023-08-06T05:40:33;97601.28;;;22.75;68.01
72855;BME280;60991;51.278;22.550;2023-08-06T05:42:04;97595.97;;;22.78;68.32
72855;BME280;60991;51.278;22.550;2023-08-06T05:43:34;97599.09;;;22.81;67.70
72855;BME280;60991;51.278;22.550;2023-08-06T05:45:05;97597.53;;;22.79;67.85
72855;BME280;60991;51.278;22.550;2023-08-06T05:46:35;97599.47;;;22.79;67.49
72855;BME280;60991;51.278;22.550;2023-08-06T05:48:05;97598.75;;;22.82;67.90
72855;BME280;60991;51.278;22.550;2023-08-06T05:49:35;97599.56;;;22.86;67.58
72855;BME280;60991;51.278;22.550;2023-08-06T05:51:06;97590.72;;;22.89;67.75
72855;BME280;60991;51.278;22.550;2023-08-06T05:52:36;97589.72;;;22.97;67.37
72855;BME280;60991;51.278;22.550;2023-08-06T05:54:06;97587.28;;;22.92;67.33
72855;BME280;60991;51.278;22.550;2023-08-06T05:55:36;97581.47;;;22.90;67.33
72855;BME280;60991;51.278;22.550;2023-08-06T05:57:06;97579.84;;;22.86;67.39
72855;BME280;60991;51.278;22.550;2023-08-06T05:58:37;97569.44;;;22.88;66.93
72855;BME280;60991;51.278;22.550;2023-08-06T06:00:07;97566.84;;;22.95;66.87
72855;BME280;60991;51.278;22.550;2023-08-06T06:01:37;97569.25;;;23.00;66.96
72855;BME280;60991;51.278;22.550;2023-08-06T06:03:08;97570.03;;;23.00;67.11
72855;BME280;60991;51.278;22.550;2023-08-06T06:04:40;97569.63;;;22.98;67.07
72855;BME280;60991;51.278;22.550;2023-08-06T06:06:10;97570.84;;;23.04;66.72
72855;BME280;60991;51.278;22.550;2023-08-06T06:07:41;97569.00;;;23.08;66.82
72855;BME280;60991;51.278;22.550;2023-08-06T06:09:11;97573.75;;;23.15;66.65
72855;BME280;60991;51.278;22.550;2023-08-06T06:10:41;97569.53;;;23.18;66.75
72855;BME280;60991;51.278;22.550;2023-08-06T06:12:11;97571.47;;;23.17;66.41
72855;BME280;60991;51.278;22.550;2023-08-06T06:13:41;97574.16;;;23.17;66.50
72855;BME280;60991;51.278;22.550;2023-08-06T06:15:12;97567.63;;;23.22;66.06
72855;BME280;60991;51.278;22.550;2023-08-06T06:16:42;97568.06;;;23.24;66.46
72855;BME280;60991;51.278;22.550;2023-08-06T06:18:13;97563.41;;;23.24;66.37
72855;BME280;60991;51.278;22.550;2023-08-06T06:19:43;97570.41;;;23.25;66.58
72855;BME280;60991;51.278;22.550;2023-08-06T06:21:13;97564.25;;;23.28;66.77
72855;BME280;60991;51.278;22.550;2023-08-06T06:22:43;97566.25;;;23.31;66.14
72855;BME280;60991;51.278;22.550;2023-08-06T06:24:14;97577.06;;;23.31;66.38
72855;BME280;60991;51.278;22.550;2023-08-06T06:25:48;97579.84;;;23.35;66.17
72855;BME280;60991;51.278;22.550;2023-08-06T06:27:19;97588.47;;;23.44;66.11
72855;BME280;60991;51.278;22.550;2023-08-06T06:28:50;97575.75;;;23.48;66.12
72855;BME280;60991;51.278;22.550;2023-08-06T06:30:20;97586.69;;;23.52;65.69
72855;BME280;60991;51.278;22.550;2023-08-06T06:31:50;97580.91;;;23.53;65.90
72855;BME280;60991;51.278;22.550;2023-08-06T06:33:20;97572.44;;;23.58;66.12
72855;BME280;60991;51.278;22.550;2023-08-06T06:34:50;97570.91;;;23.61;66.31
72855;BME280;60991;51.278;22.550;2023-08-06T06:36:21;97575.25;;;23.65;66.33
72855;BME280;60991;51.278;22.550;2023-08-06T06:37:51;97579.94;;;23.68;66.16
72855;BME280;60991;51.278;22.550;2023-08-06T06:39:21;97578.84;;;23.73;66.14
72855;BME280;60991;51.278;22.550;2023-08-06T06:40:57;97578.84;;;23.76;65.85
72855;BME280;60991;51.278;22.550;2023-08-06T06:42:28;97580.06;;;23.79;65.74
72855;BME280;60991;51.278;22.550;2023-08-06T06:43:58;97580.84;;;23.79;65.24
72855;BME280;60991;51.278;22.550;2023-08-06T06:45:28;97570.41;;;23.81;64.78
72855;BME280;60991;51.278;22.550;2023-08-06T06:46:58;97577.81;;;23.85;64.47
72855;BME280;60991;51.278;22.550;2023-08-06T06:48:31;97579.38;;;23.86;64.65
72855;BME280;60991;51.278;22.550;2023-08-06T06:50:01;97576.34;;;23.91;64.44
72855;BME280;60991;51.278;22.550;2023-08-06T06:51:32;97574.44;;;23.95;64.72
72855;BME280;60991;51.278;22.550;2023-08-06T06:53:02;97575.22;;;23.95;64.70
72855;BME280;60991;51.278;22.550;2023-08-06T06:54:35;97569.44;;;23.97;64.84
72855;BME280;60991;51.278;22.550;2023-08-06T06:56:05;97565.66;;;24.05;64.76
72855;BME280;60991;51.278;22.550;2023-08-06T06:57:35;97573.84;;;24.08;64.48
72855;BME280;60991;51.278;22.550;2023-08-06T06:59:06;97568.84;;;24.10;64.51
72855;BME280;60991;51.278;22.550;2023-08-06T07:00:36;97571.56;;;24.14;64.32
72855;BME280;60991;51.278;22.550;2023-08-06T07:02:07;97562.28;;;24.15;64.10
72855;BME280;60991;51.278;22.550;2023-08-06T07:03:37;97566.22;;;24.21;64.17
72855;BME280;60991;51.278;22.550;2023-08-06T07:05:08;97568.56;;;24.23;64.05
72855;BME280;60991;51.278;22.550;2023-08-06T07:06:38;97567.91;;;24.29;63.81
72855;BME280;60991;51.278;22.550;2023-08-06T07:08:08;97559.38;;;24.31;64.24
72855;BME280;60991;51.278;22.550;2023-08-06T07:09:38;97566.00;;;24.33;64.15
72855;BME280;60991;51.278;22.550;2023-08-06T07:11:08;97569.16;;;24.39;64.62
72855;BME280;60991;51.278;22.550;2023-08-06T07:12:39;97562.22;;;24.41;64.34
72855;BME280;60991;51.278;22.550;2023-08-06T07:14:09;97563.03;;;24.45;64.49
72855;BME280;60991;51.278;22.550;2023-08-06T07:15:39;97555.69;;;24.49;64.13
72855;BME280;60991;51.278;22.550;2023-08-06T07:17:09;97551.06;;;24.54;64.27
72855;BME280;60991;51.278;22.550;2023-08-06T07:18:39;97554.97;;;24.56;64.00
72855;BME280;60991;51.278;22.550;2023-08-06T07:20:10;97552.72;;;24.62;64.29
72855;BME280;60991;51.278;22.550;2023-08-06T07:21:40;97541.53;;;24.67;63.97
72855;BME280;60991;51.278;22.550;2023-08-06T07:23:10;97545.03;;;24.71;64.17
72855;BME280;60991;51.278;22.550;2023-08-06T07:24:40;97545.06;;;24.74;64.21
72855;BME280;60991;51.278;22.550;2023-08-06T07:26:11;97537.38;;;24.80;64.18
72855;BME280;60991;51.278;22.550;2023-08-06T07:27:41;97539.34;;;24.86;63.75
72855;BME280;60991;51.278;22.550;2023-08-06T07:29:11;97540.53;;;24.89;63.59
72855;BME280;60991;51.278;22.550;2023-08-06T07:30:43;97540.22;;;24.94;63.64
72855;BME280;60991;51.278;22.550;2023-08-06T07:32:13;97540.59;;;24.96;63.60
72855;BME280;60991;51.278;22.550;2023-08-06T07:33:44;97541.06;;;25.02;63.11
72855;BME280;60991;51.278;22.550;2023-08-06T07:35:14;97539.91;;;25.06;63.12
72855;BME280;60991;51.278;22.550;2023-08-06T07:36:45;97540.31;;;25.08;62.76
72855;BME280;60991;51.278;22.550;2023-08-06T07:38:16;97542.25;;;25.11;62.67
72855;BME280;60991;51.278;22.550;2023-08-06T07:39:46;97551.59;;;25.14;62.54
72855;BME280;60991;51.278;22.550;2023-08-06T07:41:16;97541.53;;;25.18;62.26
72855;BME280;60991;51.278;22.550;2023-08-06T07:42:46;97548.56;;;25.23;62.49
72855;BME280;60991;51.278;22.550;2023-08-06T07:44:16;97553.25;;;25.29;62.35
72855;BME280;60991;51.278;22.550;2023-08-06T07:45:47;97549.03;;;25.35;62.17
72855;BME280;60991;51.278;22.550;2023-08-06T07:47:17;97559.13;;;25.38;62.64
72855;BME280;60991;51.278;22.550;2023-08-06T07:48:47;97546.72;;;25.41;62.27
72855;BME280;60991;51.278;22.550;2023-08-06T07:50:17;97544.00;;;25.41;62.12
72855;BME280;60991;51.278;22.550;2023-08-06T07:51:47;97546.72;;;25.44;61.80
72855;BME280;60991;51.278;22.550;2023-08-06T07:53:19;97534.34;;;25.50;61.40
72855;BME280;60991;51.278;22.550;2023-08-06T07:54:50;97548.75;;;25.54;61.23